This is the latest recevied weather packets stored in our database for station/object HB9UQS-13. If no packets are shown the sender has not sent any weather packets the latest 1 day(s).
| Time | Temp. | Humidity | Pressure | Rain* | Wind** | Luminosity | Snow |
|---|---|---|---|---|---|---|---|
| 1778008050 | 10° C | 81% | 924.4 hPa | 0 mm | 0 m/s | 0 W/m² | - |
| 1778006249 | 11.11° C | 75% | 924.2 hPa | 0 mm | 0.45 m/s, 249° | 0 W/m² | - |
| 1778004450 | 11.67° C | 74% | 924 hPa | 0 mm | 0.89 m/s, 234° | 0 W/m² | - |
| 1778002650 | 12.78° C | 72% | 924.2 hPa | 0 mm | 1.34 m/s, 238° | 0 W/m² | - |
| 1778000850 | 12.22° C | 78% | 924.6 hPa | 0 mm | 2.24 m/s, 293° | 0 W/m² | - |
| 1777999050 | 13.33° C | 81% | 924.4 hPa | 0 mm | 0.89 m/s, 272° | 0 W/m² | - |
| 1777997250 | 11.67° C | 85% | 924.2 hPa | 0 mm | 0.45 m/s, 243° | 0 W/m² | - |
| 1777995450 | 12.22° C | 87% | 924.1 hPa | 0 mm | 0.89 m/s, 257° | 0 W/m² | - |
| 1777993650 | 12.78° C | 87% | 924.2 hPa | 0 mm | 2.24 m/s, 293° | 0 W/m² | - |
| 1777991850 | 11.67° C | 89% | 924.1 hPa | 0 mm | 1.79 m/s, 285° | 0 W/m² | - |
| 1777990050 | 11.67° C | 91% | 923.9 hPa | 0 mm | 1.34 m/s, 283° | 0 W/m² | - |
| 1777988250 | 11.11° C | 92% | 924 hPa | 0 mm | 2.24 m/s, 302° | 0 W/m² | - |
| 1777986450 | 11.67° C | 91% | 924.3 hPa | 0 mm | 1.79 m/s, 299° | 0 W/m² | - |
| 1777984650 | 12.78° C | 84% | 924.2 hPa | 0 mm | 1.34 m/s, 280° | 0 W/m² | - |
| 1777982850 | 12.78° C | 87% | 924.1 hPa | 0 mm | 1.79 m/s, 305° | 0 W/m² | - |
| 1777981050 | 12.78° C | 85% | 924.2 hPa | 0 mm | 1.79 m/s, 296° | 0 W/m² | - |
| 1777979250 | 12.22° C | 91% | 924.2 hPa | 0 mm | 0.89 m/s, 261° | 0 W/m² | - |
| 1777977449 | 11.67° C | 91% | 924.3 hPa | 0 mm | 1.34 m/s, 266° | 0 W/m² | - |
| 1777975650 | 11.67° C | 93% | 924.1 hPa | 0 mm | 1.34 m/s, 287° | 0 W/m² | - |
| 1777973849 | 11.11° C | 94% | 924.1 hPa | 0 mm | 0.89 m/s, 328° | 0 W/m² | - |
| 1777972050 | 11.11° C | 91% | 924.1 hPa | 0 mm | 0.89 m/s, 289° | 0 W/m² | - |
| 1777970250 | 11.67° C | 90% | 923.9 hPa | 0 mm | 0 m/s | 0 W/m² | - |
| 1777968450 | 11.67° C | 93% | 924.1 hPa | 0 mm | 0 m/s | 0 W/m² | - |
| 1777966650 | 10.56° C | 94% | 924.3 hPa | 0 mm | 0 m/s | 0 W/m² | - |
| 1777964850 | 10° C | 96% | 924.7 hPa | 0 mm | 0.89 m/s, 257° | 0 W/m² | - |
* Rain latest hour (hover to see other rain measurements)
** Current wind speed in m/s (hover to see current wind gust speed)